createdAt,value
2023-05-05T00:04:50.176Z,11.13
2023-05-05T00:09:51.778Z,11.08
2023-05-05T00:14:53.395Z,11.04
2023-05-05T00:19:54.990Z,10.99
2023-05-05T00:24:56.590Z,10.79
2023-05-05T00:29:58.176Z,10.72
2023-05-05T00:35:00.043Z,10.64
2023-05-05T00:40:01.959Z,10.52
2023-05-05T00:45:04.175Z,10.47
2023-05-05T00:50:09.486Z,10.39
2023-05-05T00:55:11.448Z,10.44
2023-05-05T01:00:13.588Z,10.43
2023-05-05T01:05:16.313Z,10.37
2023-05-05T01:10:54.481Z,10.29
2023-05-05T01:16:07.885Z,10.23
2023-05-05T01:21:27.693Z,10.17
2023-05-05T01:26:52.552Z,10.12
2023-05-05T01:31:57.266Z,10.07
2023-05-05T01:37:08.294Z,9.97
2023-05-05T01:42:15.004Z,9.89
2023-05-05T01:47:19.545Z,9.81
2023-05-05T01:52:22.679Z,9.68
2023-05-05T01:57:26.500Z,9.49
2023-05-05T02:02:28.974Z,9.22
2023-05-05T02:07:33.666Z,9.10
2023-05-05T02:12:37.229Z,9.08
2023-05-05T02:17:42.693Z,9.07
2023-05-05T02:22:44.624Z,8.97
2023-05-05T02:27:48.463Z,9.00
2023-05-05T02:32:58.900Z,8.97
2023-05-05T02:38:05.587Z,8.93
2023-05-05T02:43:18.173Z,8.88
2023-05-05T02:48:21.066Z,8.81
2023-05-05T02:53:27.121Z,8.70
2023-05-05T02:58:46.174Z,8.64
2023-05-05T03:04:14.762Z,8.57
2023-05-05T03:09:27.739Z,8.63
2023-05-05T03:14:38.896Z,8.72
2023-05-05T03:19:43.129Z,8.73
2023-05-05T03:24:49.939Z,8.28
2023-05-05T03:29:52.521Z,7.91
2023-05-05T03:34:54.564Z,7.64
2023-05-05T03:40:01.324Z,7.56
2023-05-05T03:45:03.605Z,7.59
2023-05-05T03:50:06.885Z,7.54
2023-05-05T03:55:10.688Z,7.80
2023-05-05T04:00:12.869Z,8.03
2023-05-05T04:05:17.378Z,8.37
2023-05-05T04:10:19.197Z,8.91
2023-05-05T04:15:21.642Z,9.70
2023-05-05T04:20:23.588Z,10.22
2023-05-05T04:25:25.573Z,10.46
2023-05-05T04:30:27.738Z,11.04
2023-05-05T04:35:29.645Z,11.53
2023-05-05T04:40:32.100Z,12.14
2023-05-05T04:45:34.349Z,12.76
2023-05-05T04:50:37.105Z,13.04
2023-05-05T04:55:39.574Z,13.43
2023-05-05T05:00:41.409Z,14.11
2023-05-05T05:05:43.328Z,14.36
2023-05-05T05:10:45.323Z,15.05
2023-05-05T05:15:47.028Z,15.80
2023-05-05T05:20:48.778Z,16.32
2023-05-05T05:25:51.172Z,16.74
2023-05-05T05:30:55.108Z,17.32
2023-05-05T05:35:58.179Z,17.60
2023-05-05T05:41:05.208Z,17.89
2023-05-05T05:46:09.439Z,18.09
2023-05-05T05:51:13.591Z,17.99
2023-05-05T05:56:15.711Z,17.50
2023-05-05T06:01:17.996Z,17.20
2023-05-05T06:06:20.603Z,17.29
2023-05-05T06:11:22.504Z,16.74
2023-05-05T06:16:24.434Z,16.98
2023-05-05T06:21:27.844Z,15.92
2023-05-05T06:26:31.454Z,15.60
2023-05-05T06:31:33.259Z,15.96
2023-05-05T06:36:35.743Z,16.33
2023-05-05T06:41:37.643Z,15.92
2023-05-05T06:46:39.431Z,16.26
2023-05-05T06:51:42.733Z,16.51
2023-05-05T06:56:44.628Z,17.05
2023-05-05T07:01:46.279Z,17.66
2023-05-05T07:06:47.867Z,18.03
2023-05-05T07:11:49.557Z,17.57
2023-05-05T07:16:51.637Z,17.43
2023-05-05T07:21:53.421Z,18.24
2023-05-05T07:26:55.958Z,18.22
2023-05-05T07:31:58.569Z,18.83
2023-05-05T07:37:00.453Z,19.02
2023-05-05T07:42:02.447Z,19.26
2023-05-05T07:47:04.097Z,19.68
2023-05-05T07:52:05.928Z,19.30
2023-05-05T07:57:07.519Z,19.77
2023-05-05T08:02:15.108Z,20.68
2023-05-05T08:07:17.019Z,20.94
2023-05-05T08:12:19.442Z,21.12
2023-05-05T08:17:21.066Z,21.70
2023-05-05T08:22:22.757Z,21.97
2023-05-05T08:27:24.350Z,21.07
2023-05-05T08:32:27.825Z,21.80
2023-05-05T08:37:31.050Z,22.27
2023-05-05T08:42:38.460Z,22.94
2023-05-05T08:47:42.047Z,22.73
2023-05-05T08:52:50.699Z,22.95
2023-05-05T08:57:57.309Z,23.50
2023-05-05T09:03:01.185Z,23.48
2023-05-05T09:08:05.525Z,23.69
2023-05-05T09:13:07.439Z,23.62
2023-05-05T09:18:09.605Z,24.20
2023-05-05T09:23:16.838Z,25.26
2023-05-05T09:28:18.611Z,24.98
2023-05-05T09:33:30.523Z,24.88
2023-05-05T09:38:32.264Z,25.74
2023-05-05T09:43:51.849Z,26.32
2023-05-05T09:48:53.992Z,26.71
2023-05-05T09:53:55.637Z,26.90
2023-05-05T09:59:11.884Z,27.47
2023-05-05T10:04:42.973Z,28.06
2023-05-05T10:09:44.628Z,28.50
2023-05-05T10:14:46.501Z,28.18
2023-05-05T10:19:52.193Z,26.13
2023-05-05T10:25:01.693Z,26.64
2023-05-05T10:30:07.733Z,27.34
2023-05-05T10:35:11.304Z,28.23
2023-05-05T10:40:14.746Z,28.72
2023-05-05T10:45:16.790Z,28.32
2023-05-05T10:50:31.372Z,27.65
2023-05-05T10:56:02.456Z,28.12
2023-05-05T11:01:06.061Z,29.04
2023-05-05T11:06:07.778Z,29.61
2023-05-05T11:11:10.879Z,29.07
2023-05-05T11:16:45.814Z,28.46
2023-05-05T11:22:00.757Z,28.70
2023-05-05T11:27:03.453Z,27.69
2023-05-05T11:32:13.065Z,28.31
2023-05-05T11:37:16.209Z,27.95
2023-05-05T11:42:25.763Z,28.00
2023-05-05T11:47:29.217Z,28.92
2023-05-05T11:52:30.914Z,28.91
2023-05-05T11:57:32.588Z,28.90
2023-05-05T12:02:34.719Z,28.25
2023-05-05T12:07:36.401Z,28.90
2023-05-05T12:12:40.547Z,28.70
2023-05-05T12:17:46.004Z,27.80
2023-05-05T12:22:48.129Z,27.72
2023-05-05T12:27:53.226Z,28.60
2023-05-05T12:33:07.925Z,27.88
2023-05-05T12:38:09.731Z,27.77
2023-05-05T12:43:44.207Z,27.67
2023-05-05T12:48:48.358Z,27.58
2023-05-05T12:54:08.409Z,28.29
2023-05-05T12:59:22.301Z,27.82
2023-05-05T13:04:25.689Z,27.92
2023-05-05T13:09:35.827Z,27.38
2023-05-05T13:14:39.932Z,27.16
2023-05-05T13:19:46.516Z,27.91
2023-05-05T13:24:52.453Z,26.82
2023-05-05T13:29:54.562Z,26.58
2023-05-05T13:34:56.284Z,27.28
2023-05-05T13:40:00.236Z,26.75
2023-05-05T13:45:01.861Z,26.21
2023-05-05T13:50:03.880Z,26.28
2023-05-05T13:55:06.301Z,25.80
2023-05-05T14:00:09.007Z,26.06
2023-05-05T14:05:10.855Z,26.31
2023-05-05T14:10:13.062Z,25.66
2023-05-05T14:15:14.920Z,25.90
2023-05-05T14:20:16.553Z,25.96
2023-05-05T14:25:18.231Z,25.71
2023-05-05T14:30:19.869Z,25.63
2023-05-05T14:35:21.480Z,25.54
2023-05-05T14:40:23.596Z,25.42
2023-05-05T14:45:26.340Z,25.22
2023-05-05T14:50:28.180Z,25.24
2023-05-05T14:55:29.830Z,25.29
2023-05-05T15:00:31.520Z,25.23
2023-05-05T15:05:33.365Z,25.31
2023-05-05T15:10:34.937Z,25.35
2023-05-05T15:15:36.930Z,25.37
2023-05-05T15:20:38.582Z,25.11
2023-05-05T15:25:40.385Z,24.98
2023-05-05T15:30:41.965Z,24.84
2023-05-05T15:35:43.594Z,24.73
2023-05-05T15:40:47.713Z,24.72
2023-05-05T15:45:51.772Z,24.59
2023-05-05T15:50:53.417Z,24.66
2023-05-05T15:55:55.078Z,24.35
2023-05-05T16:00:56.684Z,24.27
2023-05-05T16:05:58.444Z,24.22
2023-05-05T16:11:00.067Z,24.24
2023-05-05T16:16:01.750Z,24.18
2023-05-05T16:21:03.421Z,24.00
2023-05-05T16:26:05.166Z,23.87
2023-05-05T16:31:06.972Z,23.59
2023-05-05T16:36:12.405Z,23.44
2023-05-05T16:41:14.193Z,23.41
2023-05-05T16:46:16.255Z,23.39
2023-05-05T16:51:18.351Z,23.21
2023-05-05T16:56:21.149Z,23.17
2023-05-05T17:01:22.895Z,23.03
2023-05-05T17:06:24.560Z,22.80
2023-05-05T17:11:26.709Z,22.62
2023-05-05T17:16:28.459Z,22.39
2023-05-05T17:21:30.116Z,22.25
2023-05-05T17:26:31.820Z,22.12
2023-05-05T17:31:33.497Z,21.93
2023-05-05T17:36:35.494Z,21.76
2023-05-05T17:41:37.868Z,21.50
2023-05-05T17:46:40.378Z,21.29
2023-05-05T17:51:41.986Z,21.20
2023-05-05T17:56:43.542Z,21.02
2023-05-05T18:01:45.263Z,20.83
2023-05-05T18:06:47.129Z,20.68
2023-05-05T18:11:52.064Z,20.45
2023-05-05T18:16:54.375Z,20.31
2023-05-05T18:21:57.450Z,20.09
2023-05-05T18:26:59.096Z,19.81
2023-05-05T18:32:01.932Z,19.61
2023-05-05T18:37:03.647Z,19.51
2023-05-05T18:42:05.809Z,19.45
2023-05-05T18:47:08.157Z,19.42
2023-05-05T18:52:10.171Z,19.33
2023-05-05T18:57:11.861Z,19.21
2023-05-05T19:02:13.519Z,19.08
2023-05-05T19:07:27.660Z,18.90
2023-05-05T19:12:33.452Z,18.80
2023-05-05T19:17:35.116Z,18.69
2023-05-05T19:22:36.786Z,18.57
2023-05-05T19:27:38.795Z,18.43
2023-05-05T19:32:40.620Z,18.29
2023-05-05T19:37:42.273Z,18.20
2023-05-05T19:42:43.884Z,18.03
2023-05-05T19:47:46.651Z,17.78
2023-05-05T19:52:48.938Z,17.60
2023-05-05T19:57:50.643Z,17.40
2023-05-05T20:02:52.518Z,17.29
2023-05-05T20:07:54.245Z,17.22
2023-05-05T20:12:56.108Z,17.07
2023-05-05T20:17:57.922Z,16.95
2023-05-05T20:22:59.598Z,16.78
2023-05-05T20:28:01.427Z,16.68
2023-05-05T20:33:03.321Z,16.58
2023-05-05T20:38:05.308Z,16.49
2023-05-05T20:43:06.929Z,16.31
2023-05-05T20:48:11.085Z,16.24
2023-05-05T20:53:16.070Z,16.18
2023-05-05T20:58:17.913Z,16.11
2023-05-05T21:03:19.552Z,15.97
2023-05-05T21:08:21.234Z,15.90
2023-05-05T21:13:23.193Z,15.84
2023-05-05T21:18:27.214Z,15.79
2023-05-05T21:23:28.849Z,15.74
2023-05-05T21:28:30.549Z,15.75
2023-05-05T21:33:32.171Z,15.77
2023-05-05T21:38:34.131Z,15.79
2023-05-05T21:43:35.787Z,15.68
2023-05-05T21:48:39.005Z,15.58
2023-05-05T21:53:40.907Z,15.51
2023-05-05T21:58:42.727Z,15.45
2023-05-05T22:03:44.459Z,15.39
2023-05-05T22:08:50.314Z,15.32
2023-05-05T22:13:51.940Z,15.29
2023-05-05T22:18:53.588Z,15.18
2023-05-05T22:23:55.180Z,15.13
2023-05-05T22:28:57.079Z,15.06
2023-05-05T22:33:59.048Z,14.69
2023-05-05T22:39:00.995Z,14.78
2023-05-05T22:44:02.682Z,14.74
2023-05-05T22:49:04.599Z,14.74
2023-05-05T22:54:06.351Z,14.67
2023-05-05T22:59:08.170Z,14.66
2023-05-05T23:04:10.459Z,14.66
2023-05-05T23:09:12.746Z,14.66
2023-05-05T23:14:14.438Z,14.67
2023-05-05T23:19:16.028Z,14.71
2023-05-05T23:24:17.629Z,14.68
2023-05-05T23:29:19.716Z,14.64
2023-05-05T23:34:21.379Z,14.59
2023-05-05T23:39:22.978Z,14.51
2023-05-05T23:44:24.858Z,14.49
2023-05-05T23:49:26.569Z,14.43
2023-05-05T23:54:28.150Z,14.39
2023-05-05T23:59:30.102Z,14.34
